Time,TemperatureF,DewpointF,PressureIn,WindDirection,WindDirectionDegrees,WindSpeedMPH,WindSpeedGustMPH,Humidity,HourlyPrecipIn,Conditions,Clouds,dailyrainin,SoftwareType,DateUTC
2013-09-20 00:01:00,-999.0,-99.9,29.94,North,-999,-999.0,-999.0,-999,-99.99,,,0.00,weatherlink.com 1.10,2013-09-20 04:01:00,
2013-09-20 00:16:00,-999.0,-99.9,29.94,North,-999,-999.0,-999.0,-999,-99.99,,,0.00,weatherlink.com 1.10,2013-09-20 04:16:00,
2013-09-20 00:31:00,-999.0,-99.9,29.94,North,-999,-999.0,-999.0,-999,-99.99,,,0.00,weatherlink.com 1.10,2013-09-20 04:31:00,
2013-09-20 00:46:00,-999.0,-99.9,29.94,North,-999,-999.0,-999.0,-999,-99.99,,,0.00,weatherlink.com 1.10,2013-09-20 04:46:00,
2013-09-20 01:01:00,-999.0,-99.9,29.93,North,-999,-999.0,-999.0,-999,-99.99,,,0.00,weatherlink.com 1.10,2013-09-20 05:01:00,
2013-09-20 01:16:00,-999.0,-99.9,29.93,North,-999,-999.0,-999.0,-999,-99.99,,,0.00,weatherlink.com 1.10,2013-09-20 05:16:00,
2013-09-20 01:31:00,-999.0,-99.9,29.93,North,-999,-999.0,-999.0,-999,-99.99,,,0.00,weatherlink.com 1.10,2013-09-20 05:31:00,
2013-09-20 01:46:00,-999.0,-99.9,29.93,North,-999,-999.0,-999.0,-999,-99.99,,,0.00,weatherlink.com 1.10,2013-09-20 05:46:00,
2013-09-20 02:01:00,-999.0,-99.9,29.92,North,-999,-999.0,-999.0,-999,-99.99,,,0.00,weatherlink.com 1.10,2013-09-20 06:01:00,
2013-09-20 02:16:00,-999.0,-99.9,29.92,North,-999,-999.0,-999.0,-999,-99.99,,,0.00,weatherlink.com 1.10,2013-09-20 06:16:00,
2013-09-20 02:31:00,-999.0,-99.9,29.91,North,-999,-999.0,-999.0,-999,-99.99,,,0.00,weatherlink.com 1.10,2013-09-20 06:31:00,
2013-09-20 02:46:00,-999.0,-99.9,29.91,North,-999,-999.0,-999.0,-999,-99.99,,,0.00,weatherlink.com 1.10,2013-09-20 06:46:00,
2013-09-20 03:01:00,-999.0,-99.9,29.91,North,-999,-999.0,-999.0,-999,-99.99,,,0.00,weatherlink.com 1.10,2013-09-20 07:01:00,
2013-09-20 03:16:00,-999.0,-99.9,29.90,North,-999,-999.0,-999.0,-999,-99.99,,,0.00,weatherlink.com 1.10,2013-09-20 07:16:00,
2013-09-20 03:31:00,-999.0,-99.9,29.90,North,-999,-999.0,-999.0,-999,-99.99,,,0.00,weatherlink.com 1.10,2013-09-20 07:31:00,
2013-09-20 03:46:00,-999.0,-99.9,29.90,North,-999,-999.0,-999.0,-999,-99.99,,,0.00,weatherlink.com 1.10,2013-09-20 07:46:00,
2013-09-20 04:01:00,-999.0,-99.9,29.90,North,-999,-999.0,-999.0,-999,-99.99,,,0.00,weatherlink.com 1.10,2013-09-20 08:01:00,
2013-09-20 04:16:00,-999.0,-99.9,29.90,North,-999,-999.0,-999.0,-999,-99.99,,,0.00,weatherlink.com 1.10,2013-09-20 08:16:00,
2013-09-20 04:31:00,-999.0,-99.9,29.91,North,-999,-999.0,-999.0,-999,-99.99,,,0.00,weatherlink.com 1.10,2013-09-20 08:31:00,
2013-09-20 04:46:00,-999.0,-99.9,29.91,North,-999,-999.0,-999.0,-999,-99.99,,,0.00,weatherlink.com 1.10,2013-09-20 08:46:00,
2013-09-20 05:01:00,-999.0,-99.9,29.91,North,-999,-999.0,-999.0,-999,-99.99,,,0.00,weatherlink.com 1.10,2013-09-20 09:01:00,
2013-09-20 05:16:00,-999.0,-99.9,29.91,North,-999,-999.0,-999.0,-999,-99.99,,,0.00,weatherlink.com 1.10,2013-09-20 09:16:00,
2013-09-20 05:31:00,-999.0,-99.9,29.92,North,-999,-999.0,-999.0,-999,-99.99,,,0.00,weatherlink.com 1.10,2013-09-20 09:31:00,
2013-09-20 05:46:00,-999.0,-99.9,29.92,North,-999,-999.0,-999.0,-999,-99.99,,,0.00,weatherlink.com 1.10,2013-09-20 09:46:00,
2013-09-20 06:01:00,-999.0,-99.9,29.92,North,-999,-999.0,-999.0,-999,-99.99,,,0.00,weatherlink.com 1.10,2013-09-20 10:01:00,
2013-09-20 06:16:00,-999.0,-99.9,29.91,North,-999,-999.0,-999.0,-999,-99.99,,,0.00,weatherlink.com 1.10,2013-09-20 10:16:00,
2013-09-20 06:31:00,-999.0,-99.9,29.91,North,-999,-999.0,-999.0,-999,-99.99,,,0.00,weatherlink.com 1.10,2013-09-20 10:31:00,
2013-09-20 06:46:00,-999.0,-99.9,29.91,North,-999,-999.0,-999.0,-999,-99.99,,,0.00,weatherlink.com 1.10,2013-09-20 10:46:00,
2013-09-20 07:01:00,-999.0,-99.9,29.91,North,-999,-999.0,-999.0,-999,-99.99,,,0.00,weatherlink.com 1.10,2013-09-20 11:01:00,
2013-09-20 07:16:00,-999.0,-99.9,29.91,North,-999,-999.0,-999.0,-999,-99.99,,,0.00,weatherlink.com 1.10,2013-09-20 11:16:00,
2013-09-20 07:31:00,-999.0,-99.9,29.91,North,-999,-999.0,-999.0,-999,-99.99,,,0.00,weatherlink.com 1.10,2013-09-20 11:31:00,
2013-09-20 07:46:00,-999.0,-99.9,29.91,North,-999,-999.0,-999.0,-999,-99.99,,,0.00,weatherlink.com 1.10,2013-09-20 11:46:00,
2013-09-20 08:01:00,-999.0,-99.9,29.91,North,-999,-999.0,-999.0,-999,-99.99,,,0.00,weatherlink.com 1.10,2013-09-20 12:01:00,
2013-09-20 08:16:00,-999.0,-99.9,29.91,North,-999,-999.0,-999.0,-999,-99.99,,,0.00,weatherlink.com 1.10,2013-09-20 12:16:00,
2013-09-20 08:31:00,-999.0,-99.9,29.91,North,-999,-999.0,-999.0,-999,-99.99,,,0.00,weatherlink.com 1.10,2013-09-20 12:31:00,
2013-09-20 08:46:00,-999.0,-99.9,29.93,North,-999,-999.0,-999.0,-999,-99.99,,,0.00,weatherlink.com 1.10,2013-09-20 12:46:00,
2013-09-20 09:01:00,81.8,70.0,29.93,NE,56,5.0,-999.0,68,-99.99,,,0.00,weatherlink.com 1.10,2013-09-20 13:01:00,
2013-09-20 09:16:00,82.4,71.0,29.93,NE,48,3.0,-999.0,69,-99.99,,,0.00,weatherlink.com 1.10,2013-09-20 13:16:00,
2013-09-20 09:31:00,82.6,71.0,29.93,NNE,15,6.0,-999.0,68,-99.99,,,0.00,weatherlink.com 1.10,2013-09-20 13:31:00,
2013-09-20 09:46:00,83.4,71.0,29.94,NE,43,3.0,-999.0,66,-99.99,,,0.00,weatherlink.com 1.10,2013-09-20 13:46:00,
2013-09-20 10:01:00,83.4,71.0,29.94,ENE,68,7.0,-999.0,66,-99.99,,,0.00,weatherlink.com 1.10,2013-09-20 14:01:00,
2013-09-20 10:16:00,84.0,71.0,29.94,NNE,14,5.0,-999.0,65,-99.99,,,0.00,weatherlink.com 1.10,2013-09-20 14:16:00,
2013-09-20 10:31:00,84.0,72.0,29.94,East,90,6.0,-999.0,67,-99.99,,,0.00,weatherlink.com 1.10,2013-09-20 14:31:00,
2013-09-20 10:46:00,83.8,71.0,29.94,NE,41,8.0,-999.0,66,-99.99,,,0.00,weatherlink.com 1.10,2013-09-20 14:46:00,
2013-09-20 11:01:00,84.3,71.0,29.95,ENE,69,1.0,-999.0,65,-99.99,,,0.00,weatherlink.com 1.10,2013-09-20 15:01:00,
2013-09-20 11:16:00,84.9,70.0,29.95,ENE,65,9.0,-999.0,62,-99.99,,,0.00,weatherlink.com 1.10,2013-09-20 15:16:00,
2013-09-20 11:31:00,85.1,71.0,29.95,NE,38,6.0,-999.0,63,-99.99,,,0.00,weatherlink.com 1.10,2013-09-20 15:31:00,
2013-09-20 11:46:00,84.9,71.0,29.94,North,351,6.0,-999.0,63,-99.99,,,0.00,weatherlink.com 1.10,2013-09-20 15:46:00,
2013-09-20 12:01:00,85.7,72.0,29.95,NE,46,9.0,-999.0,63,-99.99,,,0.00,weatherlink.com 1.10,2013-09-20 16:01:00,
2013-09-20 12:16:00,86.3,72.0,29.94,NE,48,3.0,-999.0,62,-99.99,,,0.00,weatherlink.com 1.10,2013-09-20 16:16:00,
2013-09-20 12:31:00,85.5,72.0,29.94,NE,41,4.0,-999.0,64,-99.99,,,0.00,weatherlink.com 1.10,2013-09-20 16:31:00,
2013-09-20 12:46:00,85.1,72.0,29.94,NNE,26,5.0,-999.0,66,-99.99,,,0.00,weatherlink.com 1.10,2013-09-20 16:46:00,
2013-09-20 13:01:00,83.6,72.0,29.94,NE,39,5.0,-999.0,68,-99.99,,,0.00,weatherlink.com 1.10,2013-09-20 17:01:00,
2013-09-20 13:16:00,84.7,71.0,29.93,NE,36,6.0,-999.0,64,-99.99,,,0.00,weatherlink.com 1.10,2013-09-20 17:16:00,
2013-09-20 13:31:00,85.9,71.0,29.92,NNE,18,8.0,-999.0,62,-99.99,,,0.00,weatherlink.com 1.10,2013-09-20 17:31:00,
2013-09-20 13:46:00,85.9,71.0,29.91,NNE,20,11.0,-999.0,61,-99.99,,,0.00,weatherlink.com 1.10,2013-09-20 17:46:00,
2013-09-20 14:01:00,86.3,70.0,29.90,ENE,61,7.0,-999.0,59,-99.99,,,0.00,weatherlink.com 1.10,2013-09-20 18:01:00,
2013-09-20 14:16:00,85.9,70.0,29.90,NE,41,4.0,-999.0,60,-99.99,,,0.00,weatherlink.com 1.10,2013-09-20 18:16:00,
2013-09-20 14:31:00,86.3,70.0,29.89,NE,41,11.0,-999.0,58,-99.99,,,0.00,weatherlink.com 1.10,2013-09-20 18:31:00,
2013-09-20 14:46:00,86.1,70.0,29.89,NE,49,5.0,-999.0,59,-99.99,,,0.00,weatherlink.com 1.10,2013-09-20 18:46:00,
2013-09-20 15:01:00,86.3,71.0,29.88,ENE,69,3.0,-999.0,60,-99.99,,,0.00,weatherlink.com 1.10,2013-09-20 19:01:00,
2013-09-20 15:16:00,86.1,71.0,29.88,NE,38,6.0,-999.0,61,-99.99,,,0.00,weatherlink.com 1.10,2013-09-20 19:16:00,
2013-09-20 15:31:00,85.7,71.0,29.88,ENE,74,5.0,-999.0,61,-99.99,,,0.00,weatherlink.com 1.10,2013-09-20 19:31:00,
2013-09-20 15:46:00,85.7,71.0,29.87,NNE,29,6.0,-999.0,61,-99.99,,,0.00,weatherlink.com 1.10,2013-09-20 19:46:00,
2013-09-20 16:01:00,85.9,70.0,29.87,NE,44,7.0,-999.0,59,-99.99,,,0.00,weatherlink.com 1.10,2013-09-20 20:01:00,
2013-09-20 16:16:00,85.9,69.0,29.87,ENE,61,3.0,-999.0,58,-99.99,,,0.00,weatherlink.com 1.10,2013-09-20 20:16:00,
2013-09-20 16:31:00,85.7,71.0,29.86,NE,54,4.0,-999.0,61,-99.99,,,0.00,weatherlink.com 1.10,2013-09-20 20:31:00,
2013-09-20 16:46:00,84.9,71.0,29.86,NE,44,6.0,-999.0,63,-99.99,,,0.00,weatherlink.com 1.10,2013-09-20 20:46:00,
2013-09-20 17:01:00,84.3,71.0,29.86,ENE,59,7.0,-999.0,65,-99.99,,,0.00,weatherlink.com 1.10,2013-09-20 21:01:00,
2013-09-20 17:16:00,84.7,71.0,29.86,North,10,7.0,-999.0,63,-99.99,,,0.00,weatherlink.com 1.10,2013-09-20 21:16:00,
2013-09-20 17:31:00,84.5,70.0,29.86,East,80,1.0,-999.0,63,-99.99,,,0.00,weatherlink.com 1.10,2013-09-20 21:31:00,
2013-09-20 17:46:00,84.5,70.0,29.85,NNE,17,5.0,-999.0,63,-99.99,,,0.00,weatherlink.com 1.10,2013-09-20 21:46:00,
2013-09-20 18:01:00,84.3,71.0,29.85,NNE,15,5.0,-999.0,64,-99.99,,,0.00,weatherlink.com 1.10,2013-09-20 22:01:00,
2013-09-20 18:16:00,84.3,71.0,29.85,NE,44,5.0,-999.0,64,-99.99,,,0.00,weatherlink.com 1.10,2013-09-20 22:16:00,
2013-09-20 18:31:00,84.0,71.0,29.85,ENE,59,1.0,-999.0,65,-99.99,,,0.00,weatherlink.com 1.10,2013-09-20 22:31:00,
2013-09-20 18:46:00,-999.0,-99.9,29.85,North,-999,-999.0,-999.0,-999,-99.99,,,0.00,weatherlink.com 1.10,2013-09-20 22:46:00,
2013-09-20 19:01:00,-999.0,-99.9,29.85,North,-999,-999.0,-999.0,-999,-99.99,,,0.00,weatherlink.com 1.10,2013-09-20 23:01:00,
2013-09-20 19:16:00,-999.0,-99.9,29.85,North,-999,-999.0,-999.0,-999,-99.99,,,0.00,weatherlink.com 1.10,2013-09-20 23:16:00,
2013-09-20 19:31:00,-999.0,-99.9,29.85,North,-999,-999.0,-999.0,-999,-99.99,,,0.00,weatherlink.com 1.10,2013-09-20 23:31:00,
2013-09-20 19:46:00,-999.0,-99.9,29.85,North,-999,-999.0,-999.0,-999,-99.99,,,0.00,weatherlink.com 1.10,2013-09-20 23:46:00,
2013-09-20 20:01:00,-999.0,-99.9,29.85,North,-999,-999.0,-999.0,-999,-99.99,,,0.00,weatherlink.com 1.10,2013-09-21 00:01:00,
2013-09-20 20:16:00,-999.0,-99.9,29.86,North,-999,-999.0,-999.0,-999,-99.99,,,0.00,weatherlink.com 1.10,2013-09-21 00:16:00,
2013-09-20 20:31:00,-999.0,-99.9,29.86,North,-999,-999.0,-999.0,-999,-99.99,,,0.00,weatherlink.com 1.10,2013-09-21 00:31:00,
2013-09-20 20:46:00,-999.0,-99.9,29.87,North,-999,-999.0,-999.0,-999,-99.99,,,0.00,weatherlink.com 1.10,2013-09-21 00:46:00,
2013-09-20 21:01:00,-999.0,-99.9,29.87,North,-999,-999.0,-999.0,-999,-99.99,,,0.00,weatherlink.com 1.10,2013-09-21 01:01:00,
2013-09-20 21:16:00,-999.0,-99.9,29.87,North,-999,-999.0,-999.0,-999,-99.99,,,0.00,weatherlink.com 1.10,2013-09-21 01:16:00,
2013-09-20 21:31:00,-999.0,-99.9,29.87,North,-999,-999.0,-999.0,-999,-99.99,,,0.00,weatherlink.com 1.10,2013-09-21 01:31:00,
2013-09-20 21:46:00,-999.0,-99.9,29.87,North,-999,-999.0,-999.0,-999,-99.99,,,0.00,weatherlink.com 1.10,2013-09-21 01:46:00,
2013-09-20 22:01:00,-999.0,-99.9,29.88,North,-999,-999.0,-999.0,-999,-99.99,,,0.00,weatherlink.com 1.10,2013-09-21 02:01:00,
2013-09-20 22:16:00,-999.0,-99.9,29.88,North,-999,-999.0,-999.0,-999,-99.99,,,0.00,weatherlink.com 1.10,2013-09-21 02:16:00,
2013-09-20 22:31:00,-999.0,-99.9,29.87,North,-999,-999.0,-999.0,-999,-99.99,,,0.00,weatherlink.com 1.10,2013-09-21 02:31:00,
2013-09-20 22:46:00,-999.0,-99.9,29.87,North,-999,-999.0,-999.0,-999,-99.99,,,0.00,weatherlink.com 1.10,2013-09-21 02:46:00,
2013-09-20 23:01:00,-999.0,-99.9,29.87,North,-999,-999.0,-999.0,-999,-99.99,,,0.00,weatherlink.com 1.10,2013-09-21 03:01:00,
2013-09-20 23:16:00,-999.0,-99.9,29.87,North,-999,-999.0,-999.0,-999,-99.99,,,0.00,weatherlink.com 1.10,2013-09-21 03:16:00,
2013-09-20 23:31:00,-999.0,-99.9,29.87,North,-999,-999.0,-999.0,-999,-99.99,,,0.00,weatherlink.com 1.10,2013-09-21 03:31:00,
2013-09-20 23:46:00,-999.0,-99.9,29.86,North,-999,-999.0,-999.0,-999,-99.99,,,0.00,weatherlink.com 1.10,2013-09-21 03:46:00,